Time;durP1;ratioP1;P1;durP2;ratioP2;P2;SDS_P1;SDS_P2;PMS_P1;PMS_P2;Temp;Humidity;BMP_temperature;BMP_pressure;BME280_temperature;BME280_humidity;BME280_pressure;Samples;Min_cycle;Max_cycle;Signal;HPM_P1;HPM_P2
2022/03/17 00:01:53;;;;;;;22.30;12.52;;;;;;;8.73;82.54;101996.88;5059468;28;20033;-75
2022/03/17 00:04:21;;;;;;;22.02;13.85;;;;;;;8.71;81.99;101996.13;5059735;28;20036;-75
2022/03/17 00:06:47;;;;;;;20.52;12.77;;;;;;;8.71;81.77;101982.97;5060036;28;20060;-74
2022/03/17 00:09:13;;;;;;;20.63;12.48;;;;;;;8.69;82.15;101985.75;5057896;28;20542;-74
2022/03/17 00:11:38;;;;;;;23.20;13.80;;;;;;;8.67;81.96;101986.78;5060317;28;20396;-74
2022/03/17 00:14:03;;;;;;;23.70;12.52;;;;;;;8.66;82.71;101980.69;5054227;28;20043;-75
2022/03/17 00:16:30;;;;;;;24.98;13.45;;;;;;;8.61;82.57;101970.47;5061378;28;20043;-74
2022/03/17 00:18:56;;;;;;;24.17;13.60;;;;;;;8.60;82.57;101966.19;5055958;28;20075;-74
2022/03/17 00:21:22;;;;;;;26.63;12.77;;;;;;;8.60;83.12;101981.97;5062511;28;20041;-74
2022/03/17 00:23:48;;;;;;;23.55;11.40;;;;;;;8.60;83.28;101966.19;5053740;28;20112;-74
2022/03/17 00:26:14;;;;;;;21.88;12.20;;;;;;;8.53;83.25;101949.13;5060527;28;20459;-74
2022/03/17 00:28:39;;;;;;;22.50;13.00;;;;;;;8.44;82.46;101926.94;5056135;28;20052;-74
2022/03/17 00:31:04;;;;;;;23.25;12.15;;;;;;;8.56;83.19;101953.38;5045895;28;20025;-74
2022/03/17 00:33:30;;;;;;;24.67;13.55;;;;;;;8.56;83.10;101951.56;5057577;28;20032;-74
2022/03/17 00:35:55;;;;;;;24.10;14.18;;;;;;;8.57;83.53;101955.88;5055914;28;20397;-75
2022/03/17 00:38:21;;;;;;;26.50;13.13;;;;;;;8.58;83.34;101962.81;5060978;28;20021;-75
2022/03/17 00:40:46;;;;;;;23.20;13.07;;;;;;;8.58;82.99;101956.69;5059754;28;20036;-74
2022/03/17 00:43:14;;;;;;;26.50;13.75;;;;;;;8.56;83.47;101954.19;5061790;28;20532;-74
2022/03/17 00:45:41;;;;;;;29.90;12.93;;;;;;;8.48;83.95;101951.25;5063069;28;20064;-74
2022/03/17 00:48:07;;;;;;;24.73;14.35;;;;;;;8.39;83.77;101944.00;5059583;28;20108;-74
2022/03/17 00:50:34;;;;;;;25.40;13.90;;;;;;;8.49;84.23;101957.34;5042047;28;20112;-74
2022/03/17 00:53:00;;;;;;;25.27;14.15;;;;;;;8.47;84.18;101960.13;5062661;28;20115;-74
2022/03/17 00:55:26;;;;;;;24.85;13.98;;;;;;;8.46;84.18;101942.63;5058283;28;20037;-74
2022/03/17 00:57:52;;;;;;;27.38;13.77;;;;;;;8.33;84.16;101928.66;5056264;28;20085;-74
2022/03/17 01:00:18;;;;;;;27.30;14.95;;;;;;;8.44;84.57;101944.53;5060908;28;20127;-74
2022/03/17 01:02:46;;;;;;;20.85;12.45;;;;;;;8.40;84.27;101941.28;5054599;28;20020;-74
2022/03/17 01:05:15;;;;;;;24.48;13.57;;;;;;;8.40;84.62;101932.50;5054186;28;20028;-75
2022/03/17 01:07:41;;;;;;;22.38;13.48;;;;;;;8.39;85.02;101922.97;5058515;28;20028;-75
2022/03/17 01:10:09;;;;;;;22.65;13.02;;;;;;;8.31;84.67;101920.03;5058326;28;20037;-75
2022/03/17 01:12:35;;;;;;;26.35;13.77;;;;;;;8.35;84.77;101918.84;5055777;28;20029;-75
2022/03/17 01:15:03;;;;;;;23.48;13.55;;;;;;;8.32;85.43;101912.03;5058045;28;20043;-74
2022/03/17 01:17:29;;;;;;;27.98;15.18;;;;;;;8.36;85.63;101915.25;5059627;28;20024;-74
2022/03/17 01:19:54;;;;;;;22.98;13.57;;;;;;;8.30;85.63;101894.69;5058494;28;20025;-74
2022/03/17 01:22:21;;;;;;;21.60;12.57;;;;;;;8.35;85.19;101900.44;5059993;28;20048;-74
2022/03/17 01:24:49;;;;;;;26.10;13.88;;;;;;;8.34;85.63;101907.50;5041230;28;20040;-74
2022/03/17 01:27:15;;;;;;;21.98;13.45;;;;;;;8.30;85.78;101894.69;5052054;28;20049;-74
2022/03/17 01:29:43;;;;;;;30.67;15.07;;;;;;;8.37;85.92;101902.00;5052203;28;20044;-74
2022/03/17 01:32:09;;;;;;;27.15;14.48;;;;;;;8.36;85.46;101894.22;5054178;28;20040;-74
2022/03/17 01:34:34;;;;;;;22.80;12.95;;;;;;;8.34;84.99;101894.34;5054294;28;20086;-74
2022/03/17 01:37:00;;;;;;;24.33;13.10;;;;;;;8.37;85.13;101891.50;5055151;28;20020;-74
2022/03/17 01:39:26;;;;;;;24.73;14.70;;;;;;;8.38;85.49;101894.94;5057148;28;20040;-74
2022/03/17 01:41:51;;;;;;;25.65;14.23;;;;;;;8.35;85.23;101893.38;5055991;28;20021;-74
2022/03/17 01:44:16;;;;;;;27.38;14.32;;;;;;;8.36;85.73;101895.09;5053987;28;20059;-74
2022/03/17 01:49:26;;;;;;;24.65;13.45;;;;;;;8.23;85.46;101854.81;5052051;28;20555;-74
2022/03/17 01:51:51;;;;;;;26.40;14.05;;;;;;;8.35;85.96;101882.88;5035243;28;20053;-75
2022/03/17 01:54:19;;;;;;;26.73;15.20;;;;;;;8.34;86.07;101870.69;5057090;28;20028;-75
2022/03/17 01:56:46;;;;;;;22.40;13.85;;;;;;;8.31;85.55;101872.69;5052754;28;20024;-75
2022/03/17 01:59:12;;;;;;;24.30;13.20;;;;;;;8.34;85.88;101875.94;5060793;28;20031;-75
2022/03/17 02:01:38;;;;;;;26.98;14.63;;;;;;;8.24;85.80;101865.22;5052433;28;20037;-75
2022/03/17 02:04:05;;;;;;;26.13;15.27;;;;;;;8.34;85.89;101869.81;5052731;28;20020;-75
2022/03/17 02:06:31;;;;;;;23.95;12.13;;;;;;;8.32;85.70;101869.09;5056696;28;20036;-74
2022/03/17 02:08:57;;;;;;;24.50;13.48;;;;;;;8.34;86.39;101886.47;5052647;28;20020;-75
2022/03/17 02:14:06;;;;;;;22.10;13.35;;;;;;;8.34;85.89;101869.81;5051475;28;20043;-74
2022/03/17 02:16:32;;;;;;;23.15;13.30;;;;;;;8.33;86.06;101857.63;5061823;28;20032;-74
2022/03/17 02:18:59;;;;;;;26.02;14.07;;;;;;;8.26;85.31;101846.72;5054192;28;20033;-74
2022/03/17 02:21:24;;;;;;;23.83;13.02;;;;;;;8.35;85.98;101869.72;5050911;28;20626;-74
2022/03/17 02:26:34;;;;;;;23.88;13.95;;;;;;;8.35;85.61;101856.56;5050262;28;20148;-75
2022/03/17 02:29:00;;;;;;;25.15;13.27;;;;;;;8.36;86.43;101853.00;5051057;28;20131;-74
2022/03/17 02:31:25;;;;;;;23.52;13.38;;;;;;;8.22;85.76;101840.81;5056342;28;20427;-74
2022/03/17 02:33:51;;;;;;;22.23;12.90;;;;;;;8.38;85.96;101844.97;5055343;28;20067;-74
2022/03/17 02:36:18;;;;;;;23.88;13.15;;;;;;;8.36;86.40;101831.97;5052117;28;20029;-74
2022/03/17 02:38:44;;;;;;;26.70;15.18;;;;;;;8.32;85.66;101840.16;5059854;28;20491;-74
2022/03/17 02:41:10;;;;;;;24.15;13.02;;;;;;;8.36;86.44;101828.47;5054996;28;20123;-74
2022/03/17 02:43:37;;;;;;;27.98;16.15;;;;;;;8.39;86.04;101850.13;5057695;28;20029;-74
2022/03/17 02:46:02;;;;;;;26.52;14.30;;;;;;;8.40;86.68;101848.34;5054631;28;20147;-74
2022/03/17 02:48:28;;;;;;;23.23;13.38;;;;;;;8.39;85.98;101851.94;5062422;28;20078;-75
2022/03/17 02:50:53;;;;;;;24.58;13.40;;;;;;;8.37;86.77;101853.84;5053436;28;20036;-75
2022/03/17 02:53:19;;;;;;;24.10;14.27;;;;;;;8.30;88.92;101857.88;5053214;28;20029;-74
2022/03/17 02:55:44;;;;;;;23.90;13.35;;;;;;;8.21;90.37;101847.03;5054340;28;20633;-74
2022/03/17 02:58:11;;;;;;;24.65;13.75;;;;;;;8.09;90.53;101840.03;5054517;28;20029;-74
2022/03/17 03:00:37;;;;;;;29.08;14.50;;;;;;;8.11;91.04;101853.91;5054426;28;20500;-74
2022/03/17 03:03:03;;;;;;;28.75;14.73;;;;;;;8.08;91.69;101848.88;5054211;28;20060;-74
2022/03/17 03:05:29;;;;;;;27.80;14.05;;;;;;;8.10;91.22;101846.13;5052850;28;20059;-74
2022/03/17 03:07:54;;;;;;;26.75;14.98;;;;;;;8.07;91.29;101836.66;5053242;28;20052;-74
2022/03/17 03:10:20;;;;;;;28.77;15.75;;;;;;;8.11;91.49;101832.88;5057554;28;20035;-74
2022/03/17 03:12:46;;;;;;;23.60;14.43;;;;;;;8.17;91.64;101837.69;5056843;28;20060;-74
2022/03/17 03:15:12;;;;;;;24.48;13.95;;;;;;;8.20;91.15;101841.88;5053719;28;20489;-74
2022/03/17 03:17:38;;;;;;;26.90;14.98;;;;;;;8.24;90.52;101848.59;5053529;28;20025;-75
2022/03/17 03:20:05;;;;;;;19.83;12.18;;;;;;;8.27;90.13;101842.28;5053045;28;20041;-74
2022/03/17 03:22:36;;;;;;;30.42;14.43;;;;;;;8.22;89.15;101825.03;5064912;28;20046;-74
2022/03/17 03:25:02;;;;;;;25.60;14.15;;;;;;;8.38;88.44;101844.97;5060726;28;20463;-74
2022/03/17 03:27:28;;;;;;;30.50;16.15;;;;;;;8.38;88.28;101842.34;5051583;28;20044;-74
2022/03/17 03:29:58;;;;;;;24.17;14.13;;;;;;;8.39;88.66;101833.53;5052486;28;20137;-74
2022/03/17 03:32:25;;;;;;;26.70;13.25;;;;;;;8.39;88.04;101836.97;5052821;28;20435;-74
2022/03/17 03:34:51;;;;;;;26.23;14.10;;;;;;;8.41;88.41;101847.44;5053540;28;20027;-74
2022/03/17 03:37:23;;;;;;;25.00;13.48;;;;;;;8.41;88.74;101835.13;5055113;28;20028;-74
2022/03/17 03:39:53;;;;;;;22.85;13.23;;;;;;;8.42;88.34;101847.31;5057867;28;20041;-74
2022/03/17 03:42:19;;;;;;;27.13;14.82;;;;;;;8.44;88.79;101844.56;5058177;28;20028;-74
2022/03/17 03:44:45;;;;;;;24.95;15.02;;;;;;;8.41;88.30;101835.13;5062712;28;20036;-74
2022/03/17 03:47:10;;;;;;;27.02;15.52;;;;;;;8.47;87.74;101849.63;5042802;28;20431;-74
2022/03/17 03:49:39;;;;;;;27.30;14.52;;;;;;;8.53;87.83;101846.53;5061374;28;20473;-74
2022/03/17 03:52:06;;;;;;;23.55;14.23;;;;;;;8.57;88.08;101840.09;5064512;28;20115;-74
2022/03/17 03:54:32;;;;;;;24.83;14.65;;;;;;;8.54;88.16;101832.44;5063455;28;20053;-74
2022/03/17 03:56:57;;;;;;;25.63;13.35;;;;;;;8.57;87.63;101831.34;5059906;28;20052;-74
2022/03/17 03:59:25;;;;;;;27.88;13.77;;;;;;;8.59;87.99;101846.06;5060684;28;20389;-74
2022/03/17 04:01:55;;;;;;;25.60;14.50;;;;;;;8.62;88.09;101848.50;5065349;28;20025;-74
2022/03/17 04:04:21;;;;;;;22.25;14.13;;;;;;;8.64;88.09;101843.09;5064995;28;20116;-74
2022/03/17 04:06:48;;;;;;;22.63;14.18;;;;;;;8.64;88.10;101849.22;5063408;28;20047;-74
2022/03/17 04:09:15;;;;;;;26.38;14.68;;;;;;;8.67;88.12;101853.44;5061842;28;20029;-74
2022/03/17 04:11:41;;;;;;;25.55;14.90;;;;;;;8.63;89.76;101855.44;5059737;28;20108;-74
2022/03/17 04:14:07;;;;;;;26.45;14.27;;;;;;;8.62;90.02;101859.03;5064955;28;20491;-74
2022/03/17 04:16:34;;;;;;;27.73;15.07;;;;;;;8.56;90.47;101856.84;5044285;28;20056;-74
2022/03/17 04:18:59;;;;;;;27.15;15.27;;;;;;;8.64;90.45;101857.13;5063057;28;20107;-74
2022/03/17 04:21:24;;;;;;;25.15;16.75;;;;;;;8.52;91.91;101844.03;5065272;28;20048;-74
2022/03/17 04:23:50;;;;;;;29.38;16.10;;;;;;;8.46;93.11;101837.41;5064369;28;20032;-74
2022/03/17 04:26:15;;;;;;;26.73;15.32;;;;;;;8.39;94.64;101844.03;5066911;28;20083;-74
2022/03/17 04:28:41;;;;;;;29.58;15.93;;;;;;;8.37;95.73;101856.47;5056218;28;20037;-74
2022/03/17 04:31:06;;;;;;;26.45;16.13;;;;;;;8.31;97.32;101860.38;5063559;28;20040;-74
2022/03/17 04:33:32;;;;;;;31.30;17.67;;;;;;;8.30;98.01;101857.88;5041039;28;20115;-74
2022/03/17 04:35:57;;;;;;;30.63;18.15;;;;;;;8.28;99.03;101865.03;5066527;28;20032;-74
2022/03/17 04:38:22;;;;;;;31.42;17.17;;;;;;;8.24;98.66;101862.59;5054889;28;20416;-74
2022/03/17 04:40:49;;;;;;;30.15;15.63;;;;;;;8.18;98.85;101857.75;5057275;28;20389;-74
2022/03/17 04:43:18;;;;;;;33.25;16.92;;;;;;;8.19;99.24;101859.47;5059551;28;20098;-74
2022/03/17 04:45:45;;;;;;;34.08;18.10;;;;;;;8.29;99.08;101874.56;5064321;28;20035;-74
2022/03/17 04:48:11;;;;;;;29.98;17.38;;;;;;;8.28;99.38;101875.53;5058574;28;20493;-74
2022/03/17 04:50:36;;;;;;;33.15;18.77;;;;;;;8.34;99.93;101891.72;5044369;28;20033;-73
2022/03/17 04:55:46;;;;;;;35.00;20.02;;;;;;;8.24;100.00;101899.41;5056372;28;20432;-73
2022/03/17 04:58:12;;;;;;;39.85;21.77;;;;;;;8.14;100.00;101908.91;5056763;28;20029;-73
2022/03/17 05:00:38;;;;;;;38.42;22.70;;;;;;;8.06;100.00;101927.03;5062580;28;20095;-73
2022/03/17 05:03:03;;;;;;;43.92;23.23;;;;;;;8.03;100.00;101919.31;5061956;28;20450;-73
2022/03/17 05:05:29;;;;;;;45.38;25.38;;;;;;;7.98;100.00;101931.97;5060692;28;20493;-73
2022/03/17 05:07:57;;;;;;;46.85;24.80;;;;;;;7.99;100.00;101938.88;5062293;28;20483;-74
2022/03/17 05:10:23;;;;;;;55.03;29.90;;;;;;;7.94;100.00;101943.63;5047511;28;20029;-74
2022/03/17 05:12:48;;;;;;;51.33;27.73;;;;;;;7.94;100.00;101952.34;5053125;28;20043;-74
2022/03/17 05:15:13;;;;;;;52.22;25.90;;;;;;;7.92;100.00;101959.50;5061524;28;20086;-74
2022/03/17 05:17:40;;;;;;;57.20;28.23;;;;;;;7.91;100.00;101970.16;5050958;28;20497;-74
2022/03/17 05:20:12;;;;;;;55.90;26.88;;;;;;;7.91;100.00;101978.03;5050872;28;20042;-74
2022/03/17 05:22:41;;;;;;;57.22;28.52;;;;;;;7.88;100.00;101980.84;5051089;28;20082;-74
2022/03/17 05:25:08;;;;;;;59.53;30.15;;;;;;;7.85;100.00;101983.69;5050188;28;20032;-74
2022/03/17 05:27:51;;;;;;;67.35;30.90;;;;;;;7.82;100.00;101982.97;5053064;28;20078;-74
2022/03/17 05:30:19;;;;;;;72.80;35.17;;;;;;;7.57;100.00;101964.53;5049995;28;20060;-74
2022/03/17 05:32:46;;;;;;;60.88;32.03;;;;;;;7.85;100.00;102007.34;5048646;28;20036;-74
2022/03/17 05:35:13;;;;;;;57.40;26.92;;;;;;;7.86;100.00;102019.53;5047572;28;20041;-74
2022/03/17 05:37:39;;;;;;;52.22;25.90;;;;;;;7.81;100.00;102007.53;5049346;28;20035;-73
2022/03/17 05:40:13;;;;;;;40.10;21.75;;;;;;;7.89;100.00;102041.22;5046656;28;20028;-73
2022/03/17 05:42:39;;;;;;;21.77;11.65;;;;;;;7.73;100.00;102049.28;5047592;28;20035;-73
2022/03/17 05:45:05;;;;;;;18.75;9.48;;;;;;;7.72;100.00;102067.78;5049551;28;20029;-74
2022/03/17 05:47:42;;;;;;;16.35;8.38;;;;;;;7.55;100.00;102066.25;5047772;28;20044;-73
2022/03/17 05:50:10;;;;;;;12.65;7.03;;;;;;;7.57;100.00;102077.50;5048879;28;20412;-73
2022/03/17 05:52:38;;;;;;;9.68;5.80;;;;;;;7.52;100.00;102076.97;5050709;28;20028;-73
2022/03/17 05:55:04;;;;;;;8.85;5.18;;;;;;;7.48;100.00;102093.88;5049979;28;20129;-74
2022/03/17 05:57:30;;;;;;;9.05;5.80;;;;;;;7.40;100.00;102100.47;5054375;28;20075;-74
2022/03/17 05:59:55;;;;;;;10.95;5.43;;;;;;;7.34;100.00;102087.72;5033073;28;20111;-74
2022/03/17 06:02:21;;;;;;;7.95;5.50;;;;;;;7.39;100.00;102108.44;5047269;28;20041;-74
2022/03/17 06:04:46;;;;;;;10.00;5.78;;;;;;;7.36;100.00;102108.63;5051405;28;20347;-74
2022/03/17 06:07:12;;;;;;;10.27;5.95;;;;;;;7.38;100.00;102107.59;5051611;28;20040;-74
2022/03/17 06:09:38;;;;;;;14.77;7.45;;;;;;;7.30;100.00;102120.38;5049404;28;20029;-74
2022/03/17 06:12:05;;;;;;;14.18;7.30;;;;;;;7.28;100.00;102135.38;5057676;28;20067;-74
2022/03/17 06:14:32;;;;;;;15.23;7.57;;;;;;;7.31;100.00;102137.78;5054265;28;20036;-74
2022/03/17 06:16:58;;;;;;;12.63;7.63;;;;;;;7.21;100.00;102120.97;5061905;28;20089;-73
2022/03/17 06:19:23;;;;;;;18.10;8.23;;;;;;;7.29;100.00;102139.69;5055127;28;20562;-73
2022/03/17 06:21:49;;;;;;;13.63;6.88;;;;;;;7.24;100.00;102131.25;5056900;28;20028;-73
2022/03/17 06:24:14;;;;;;;15.13;7.55;;;;;;;7.29;100.00;102144.94;5063659;28;20040;-73
2022/03/17 06:26:40;;;;;;;16.30;7.78;;;;;;;7.27;100.00;102152.06;5045311;28;20147;-77
2022/03/17 06:29:06;;;;;;;14.95;5.95;;;;;;;7.29;100.00;102163.31;5059264;28;20056;-75
2022/03/17 06:31:31;;;;;;;12.60;6.60;;;;;;;7.27;100.00;102167.81;5052600;28;20029;-76
2022/03/17 06:33:57;;;;;;;14.27;6.35;;;;;;;7.29;100.00;102178.22;5057626;28;20102;-77
2022/03/17 06:36:23;;;;;;;13.70;6.85;;;;;;;7.18;100.00;102184.97;5059773;28;20111;-79
2022/03/17 06:38:48;;;;;;;13.65;5.18;;;;;;;7.07;100.00;102187.44;5060353;28;20103;-78
2022/03/17 06:41:14;;;;;;;12.68;4.90;;;;;;;7.16;100.00;102199.16;5035534;28;20067;-77
2022/03/17 06:43:39;;;;;;;12.95;3.75;;;;;;;7.17;100.00;102209.56;5059401;28;20077;-77
2022/03/17 06:46:05;;;;;;;10.50;3.95;;;;;;;7.20;100.00;102216.41;5040095;28;20032;-77
2022/03/17 06:48:30;;;;;;;10.65;3.38;;;;;;;7.24;100.00;102225.78;5064170;28;20348;-78
2022/03/17 06:50:57;;;;;;;10.38;3.95;;;;;;;7.11;100.00;102204.69;5057763;28;20029;-78
2022/03/17 06:53:22;;;;;;;6.93;2.97;;;;;;;7.25;100.00;102237.13;5019496;28;20048;-78
2022/03/17 06:55:48;;;;;;;5.65;2.60;;;;;;;7.13;100.00;102244.81;5055556;28;20028;-78
2022/03/17 06:58:13;;;;;;;8.90;2.72;;;;;;;7.12;100.00;102247.53;5054977;28;20113;-78
2022/03/17 07:00:38;;;;;;;9.98;2.78;;;;;;;7.16;100.00;102244.66;5052031;28;20516;-78
2022/03/17 07:03:04;;;;;;;9.70;3.40;;;;;;;7.13;100.00;102241.38;5051533;28;20032;-78
2022/03/17 07:05:29;;;;;;;6.93;2.33;;;;;;;7.14;100.00;102261.41;5039871;28;20063;-79
2022/03/17 07:07:54;;;;;;;8.18;2.55;;;;;;;7.22;100.00;102272.31;5059047;28;20067;-78
2022/03/17 07:10:21;;;;;;;5.93;1.98;;;;;;;7.25;100.00;102280.00;5055301;28;20021;-77
2022/03/17 07:12:47;;;;;;;11.13;2.38;;;;;;;7.09;100.00;102269.56;5062189;28;20032;-78
2022/03/17 07:15:13;;;;;;;11.57;2.40;;;;;;;7.15;100.00;102289.38;5057203;28;20142;-78
2022/03/17 07:17:40;;;;;;;4.93;2.40;;;;;;;7.10;100.00;102299.28;5053385;28;20048;-78
2022/03/17 07:20:14;;;;;;;10.13;1.83;;;;;;;7.11;100.00;102299.22;5055097;28;20391;-78
2022/03/17 07:22:40;;;;;;;4.47;1.30;;;;;;;7.13;100.00;102307.84;5065566;28;20036;-78
2022/03/17 07:25:06;;;;;;;7.15;1.40;;;;;;;7.04;100.00;102295.25;5057865;28;20040;-79
2022/03/17 07:27:40;;;;;;;6.15;1.10;;;;;;;7.07;100.00;102320.50;5056809;28;20024;-78
2022/03/17 07:30:08;;;;;;;8.65;1.55;;;;;;;7.13;100.00;102328.84;5054437;28;20057;-78
2022/03/17 07:32:34;;;;;;;5.90;1.63;;;;;;;7.15;100.00;102334.84;5058397;28;20061;-78
2022/03/17 07:34:59;;;;;;;6.80;1.35;;;;;;;7.24;99.25;102333.44;5059889;28;20481;-78
2022/03/17 07:37:24;;;;;;;5.38;1.50;;;;;;;7.28;98.28;102344.63;5063025;28;20054;-78
2022/03/17 07:39:50;;;;;;;5.43;1.00;;;;;;;7.33;98.45;102347.81;5059006;28;20245;-79
2022/03/17 07:42:15;;;;;;;3.33;1.00;;;;;;;7.38;98.23;102348.38;5057243;28;20544;-78
2022/03/17 07:44:41;;;;;;;5.97;1.10;;;;;;;7.31;98.55;102352.31;5057093;28;20033;-79
2022/03/17 07:47:08;;;;;;;8.02;1.20;;;;;;;7.38;98.30;102375.50;5060777;28;20032;-78
2022/03/17 07:49:37;;;;;;;8.02;0.93;;;;;;;7.19;97.71;102348.66;5057346;28;20028;-78
2022/03/17 07:52:04;;;;;;;6.00;1.00;;;;;;;7.21;97.12;102358.13;5059408;28;20021;-78
2022/03/17 07:54:29;;;;;;;8.73;1.80;;;;;;;7.31;97.26;102379.41;5058772;28;20056;-79
2022/03/17 07:56:55;;;;;;;4.82;1.00;;;;;;;7.31;97.28;102379.41;5060597;28;20128;-79
2022/03/17 07:59:23;;;;;;;4.03;0.98;;;;;;;7.27;97.48;102388.41;5066358;28;20488;-79
2022/03/17 08:01:50;;;;;;;5.18;1.38;;;;;;;7.18;96.81;102384.53;5061132;28;20028;-78
2022/03/17 08:04:15;;;;;;;6.18;1.20;;;;;;;7.29;97.63;102396.19;5057513;28;20037;-79
2022/03/17 08:06:41;;;;;;;4.30;0.93;;;;;;;7.29;96.49;102397.03;5061669;28;20099;-78
2022/03/17 08:09:07;;;;;;;12.57;1.67;;;;;;;7.35;96.53;102401.94;5056123;28;20370;-78
2022/03/17 08:11:33;;;;;;;2.88;0.88;;;;;;;7.24;96.16;102388.59;5059653;28;20017;-79
2022/03/17 08:13:58;;;;;;;6.97;1.40;;;;;;;7.45;95.63;102411.91;5060366;28;20036;-79
2022/03/17 08:16:24;;;;;;;4.82;0.73;;;;;;;7.37;95.10;102400.06;5061848;28;20020;-78
2022/03/17 08:18:50;;;;;;;8.73;1.27;;;;;;;7.43;93.66;102419.88;5058289;28;20067;-78
2022/03/17 08:21:16;;;;;;;5.82;1.25;;;;;;;7.31;92.79;102410.94;5059151;28;20061;-79
2022/03/17 08:23:42;;;;;;;7.35;1.90;;;;;;;7.37;92.53;102436.84;5060495;28;20108;-78
2022/03/17 08:26:08;;;;;;;8.45;1.35;;;;;;;7.36;93.70;102436.91;5062051;28;20101;-78
2022/03/17 08:28:34;;;;;;;7.10;1.33;;;;;;;7.39;93.15;102450.72;5057887;28;20025;-78
2022/03/17 08:30:59;;;;;;;11.93;2.22;;;;;;;7.37;93.86;102462.28;5057675;28;20509;-79
2022/03/17 08:33:25;;;;;;;7.15;1.50;;;;;;;7.44;94.13;102468.00;5061248;28;20501;-78
2022/03/17 08:35:50;;;;;;;10.88;1.15;;;;;;;7.33;94.71;102456.34;5064021;28;20116;-78
2022/03/17 08:38:16;;;;;;;10.35;2.35;;;;;;;7.36;93.77;102474.56;5047758;28;20048;-78
2022/03/17 08:40:41;;;;;;;14.60;3.55;;;;;;;7.43;93.20;102487.34;5058154;28;20031;-78
2022/03/17 08:43:12;;;;;;;9.45;1.88;;;;;;;7.48;92.96;102496.63;5063184;28;20489;-78
2022/03/17 08:51:07;;;;;;;7.50;2.25;;;;;;;7.51;91.21;102500.84;5059240;28;20056;-78
2022/03/17 08:53:33;;;;;;;7.22;1.83;;;;;;;7.61;90.61;102515.16;5056578;28;20119;-78
2022/03/17 08:56:06;;;;;;;5.97;1.20;;;;;;;7.50;88.93;102502.66;5061931;28;20403;-78
2022/03/17 08:58:34;;;;;;;9.02;1.83;;;;;;;7.59;88.17;102532.78;5033486;28;20404;-78
2022/03/17 09:01:00;;;;;;;7.78;1.10;;;;;;;7.58;86.90;102533.75;5036043;28;20025;-79
2022/03/17 09:03:26;;;;;;;8.30;1.23;;;;;;;7.52;86.14;102544.59;5036185;28;20040;-79
2022/03/17 09:05:52;;;;;;;7.15;2.33;;;;;;;7.51;86.09;102545.53;5033283;28;20340;-79
2022/03/17 09:08:17;;;;;;;8.07;1.33;;;;;;;7.50;85.77;102557.81;5035937;28;20026;-80
2022/03/17 09:10:42;;;;;;;6.07;0.90;;;;;;;7.43;85.59;102550.41;5036966;28;20129;-79
2022/03/17 09:13:09;;;;;;;10.65;1.63;;;;;;;7.51;85.79;102566.53;5017577;28;20029;-79
2022/03/17 09:15:36;;;;;;;14.68;1.38;;;;;;;7.59;85.63;102567.78;5038679;28;20021;-79
2022/03/17 09:18:02;;;;;;;6.60;1.00;;;;;;;7.55;84.31;102575.94;5033724;28;20034;-79
2022/03/17 09:20:28;;;;;;;10.48;1.10;;;;;;;7.49;84.13;102577.16;5035331;28;20032;-78
2022/03/17 09:22:55;;;;;;;5.57;1.00;;;;;;;7.69;83.37;102594.41;5037976;28;20117;-79
2022/03/17 09:25:26;;;;;;;8.13;1.00;;;;;;;7.85;84.35;102604.03;5037129;28;20037;-79
2022/03/17 09:27:52;;;;;;;7.80;1.60;;;;;;;7.80;83.24;102605.13;5044209;28;20025;-79
2022/03/17 09:30:18;;;;;;;8.75;2.13;;;;;;;7.82;81.81;102619.03;5034185;28;20701;-79
2022/03/17 09:32:45;;;;;;;6.70;1.23;;;;;;;7.82;81.47;102626.09;5036528;28;20112;-79
2022/03/17 09:35:11;;;;;;;5.68;0.88;;;;;;;7.66;81.72;102609.50;5035419;28;20385;-79
2022/03/17 09:37:37;;;;;;;5.47;1.40;;;;;;;7.65;82.08;102618.31;5031327;28;20037;-79
2022/03/17 09:40:03;;;;;;;11.60;1.55;;;;;;;7.81;82.53;102634.91;5035557;28;20025;-78
2022/03/17 09:42:29;;;;;;;5.88;1.00;;;;;;;7.81;82.06;102635.72;5021289;28;20037;-78
2022/03/17 09:44:54;;;;;;;8.23;1.30;;;;;;;8.07;82.35;102640.44;5033140;28;20061;-78
2022/03/17 09:47:22;;;;;;;5.80;1.40;;;;;;;8.01;82.36;102624.09;5035472;28;20520;-78
2022/03/17 09:49:53;;;;;;;9.40;1.50;;;;;;;8.26;82.91;102650.72;5036638;28;20029;-79
2022/03/17 09:52:20;;;;;;;8.90;1.67;;;;;;;8.31;82.20;102649.50;5036360;28;20033;-79
2022/03/17 09:54:47;;;;;;;7.30;1.42;;;;;;;8.28;79.97;102662.84;5036031;28;20382;-79
2022/03/17 09:57:16;;;;;;;10.73;1.50;;;;;;;8.43;79.67;102683.03;5033633;28;20021;-79
2022/03/17 09:59:45;;;;;;;7.30;1.42;;;;;;;8.46;79.87;102676.72;5035920;28;20454;-79
2022/03/17 10:02:17;;;;;;;7.78;1.60;;;;;;;8.28;78.38;102676.00;5039282;28;20170;-80
2022/03/17 10:04:47;;;;;;;4.70;0.82;;;;;;;8.36;78.50;102670.28;5035505;28;20127;-79
2022/03/17 10:07:18;;;;;;;4.88;1.45;;;;;;;8.82;79.30;102680.72;5022581;28;20563;-79
2022/03/17 10:09:44;;;;;;;14.23;1.50;;;;;;;9.48;79.76;102702.97;5023777;28;20500;-80
2022/03/17 10:12:11;;;;;;;13.75;2.42;;;;;;;9.76;78.20;102715.22;5025055;28;20039;-79
2022/03/17 10:14:49;;;;;;;11.95;1.92;;;;;;;9.79;77.14;102716.81;5022379;28;20032;-79
2022/03/17 10:17:37;;;;;;;9.35;1.60;;;;;;;9.72;77.39;102723.44;5023437;28;20450;-79
2022/03/17 10:20:18;;;;;;;5.90;1.48;;;;;;;9.74;76.39;102726.81;5031283;28;20433;-79
2022/03/17 10:22:46;;;;;;;11.32;2.03;;;;;;;9.58;75.78;102726.94;5031836;28;20033;-79
2022/03/17 10:25:13;;;;;;;4.82;1.02;;;;;;;9.82;74.68;102738.56;5021485;28;20493;-80
2022/03/17 10:27:40;;;;;;;10.07;2.35;;;;;;;10.59;72.19;102757.28;5022339;28;20539;-80
2022/03/17 10:30:07;;;;;;;6.63;1.25;;;;;;;10.39;71.84;102771.00;5021578;28;20041;-79
2022/03/17 10:32:33;;;;;;;8.02;1.42;;;;;;;10.70;73.44;102762.69;5022479;28;20096;-79
2022/03/17 10:34:58;;;;;;;13.90;1.80;;;;;;;11.66;70.41;102759.53;5023277;28;20466;-79
2022/03/17 10:37:25;;;;;;;11.65;1.45;;;;;;;11.53;70.87;102769.31;5025051;28;20053;-79
2022/03/17 10:39:53;;;;;;;9.40;1.45;;;;;;;11.26;70.97;102782.69;5022714;28;20025;-79
2022/03/17 10:42:19;;;;;;;10.18;1.95;;;;;;;11.45;69.91;102793.66;5022173;28;20498;-79
2022/03/17 10:44:50;;;;;;;5.88;1.13;;;;;;;11.99;68.47;102775.75;5022790;28;20033;-79
2022/03/17 10:47:26;;;;;;;4.10;1.00;;;;;;;12.62;65.80;102787.81;5021674;28;20026;-80
2022/03/17 10:50:05;;;;;;;13.18;1.63;;;;;;;13.01;63.77;102800.81;5020499;28;20120;-79
2022/03/17 10:52:57;;;;;;;9.52;1.35;;;;;;;14.35;63.81;102805.13;5022559;28;20438;-79
2022/03/17 10:55:28;;;;;;;7.05;1.20;;;;;;;16.25;58.28;102809.13;5020794;28;20037;-79
2022/03/17 10:57:58;;;;;;;9.20;1.70;;;;;;;17.31;53.55;102801.13;5025384;28;20734;-79
2022/03/17 11:00:28;;;;;;;8.02;1.60;;;;;;;18.33;51.92;102818.78;5018963;28;20040;-80
2022/03/17 11:02:57;;;;;;;7.80;1.30;;;;;;;18.62;50.02;102831.91;5023553;28;20033;-80
2022/03/17 11:05:24;;;;;;;11.45;2.33;;;;;;;19.37;49.40;102833.25;5024379;28;20028;-80
2022/03/17 11:07:51;;;;;;;6.63;1.50;;;;;;;20.36;46.34;102819.16;5023861;28;20368;-81
2022/03/17 11:10:19;;;;;;;6.55;1.42;;;;;;;19.26;46.53;102840.53;5024020;28;20547;-81
2022/03/17 11:12:44;;;;;;;9.85;2.60;;;;;;;19.49;47.33;102859.59;5024300;28;20044;-80
2022/03/17 11:15:10;;;;;;;10.30;2.45;;;;;;;20.11;47.49;102848.59;5022219;28;20030;-81
2022/03/17 11:17:39;;;;;;;7.20;1.45;;;;;;;21.66;46.30;102870.94;5019299;28;20144;-80
2022/03/17 11:20:11;;;;;;;6.68;1.60;;;;;;;21.41;44.49;102869.38;5026622;28;20030;-81
2022/03/17 11:22:37;;;;;;;5.10;1.73;;;;;;;22.14;44.83;102884.31;5021228;28;20030;-80
2022/03/17 11:25:20;;;;;;;5.38;1.88;;;;;;;20.79;44.36;102889.56;5024261;28;20049;-80
2022/03/17 11:27:47;;;;;;;6.25;1.23;;;;;;;20.34;45.22;102894.38;5023950;28;20053;-80
2022/03/17 11:30:42;;;;;;;6.50;1.33;;;;;;;19.08;45.61;102895.97;5026885;28;20042;-80
2022/03/17 11:33:28;;;;;;;9.45;1.67;;;;;;;18.86;45.61;102898.16;5031982;28;20028;-80
2022/03/17 11:35:59;;;;;;;5.82;1.48;;;;;;;18.20;48.16;102898.50;5033894;28;20541;-80
2022/03/17 11:38:30;;;;;;;6.38;1.48;;;;;;;19.49;47.65;102909.63;5035117;28;20037;-80